Time;durP1;ratioP1;P1;durP2;ratioP2;P2;SDS_P1;SDS_P2;PMS_P1;PMS_P2;Temp;Humidity;BMP_temperature;BMP_pressure;BME280_temperature;BME280_humidity;BME280_pressure;Samples;Min_cycle;Max_cycle;Signal;HPM_P1;HPM_P2
2023/07/30 00:01:32;;;;;;;12.80;8.07;;;;;;;21.03;nan;100116.97;5016941;28;20034;-72
2023/07/30 00:03:58;;;;;;;10.77;8.13;;;;;;;20.96;nan;100132.66;5016232;28;20055;-71
2023/07/30 00:06:23;;;;;;;19.13;8.98;;;;;;;20.83;nan;100130.81;5015231;28;20086;-72
2023/07/30 00:08:49;;;;;;;15.25;8.32;;;;;;;20.77;nan;100118.63;5014521;28;20017;-71
2023/07/30 00:11:14;;;;;;;13.07;8.10;;;;;;;20.79;nan;100121.78;5013953;28;20013;-71
2023/07/30 00:13:39;;;;;;;12.20;7.60;;;;;;;20.74;nan;100127.25;5017328;28;20339;-71
2023/07/30 00:16:05;;;;;;;15.65;8.40;;;;;;;20.59;nan;100110.41;5016585;28;20018;-72
2023/07/30 00:18:30;;;;;;;14.35;8.00;;;;;;;20.51;nan;100100.38;5015874;28;20021;-70
2023/07/30 00:20:55;;;;;;;13.63;8.20;;;;;;;20.60;nan;100121.91;5016294;28;20124;-71
2023/07/30 00:23:21;;;;;;;10.13;8.52;;;;;;;20.53;nan;100119.59;5014917;28;20519;-72
2023/07/30 00:25:46;;;;;;;14.60;8.23;;;;;;;20.58;nan;100129.44;5017707;28;20032;-71
2023/07/30 00:28:11;;;;;;;13.93;8.80;;;;;;;20.40;nan;100115.06;5013858;28;20041;-71
2023/07/30 00:30:37;;;;;;;11.77;7.90;;;;;;;20.39;nan;100116.13;5015891;28;20128;-71
2023/07/30 00:33:02;;;;;;;13.05;8.80;;;;;;;20.40;nan;100120.41;5014644;28;20024;-71
2023/07/30 00:35:28;;;;;;;11.05;7.97;;;;;;;20.52;nan;100142.09;5016242;28;20025;-71
2023/07/30 00:37:53;;;;;;;9.63;7.60;;;;;;;20.49;nan;100137.31;5017213;28;20040;-71
2023/07/30 00:40:18;;;;;;;10.82;7.97;;;;;;;20.40;nan;100125.75;5013687;28;20034;-70
2023/07/30 00:42:44;;;;;;;14.35;7.75;;;;;;;20.50;nan;100140.81;5013008;28;20168;-72
2023/07/30 00:45:10;;;;;;;10.77;7.72;;;;;;;20.53;nan;100141.00;5014892;28;20090;-71
2023/07/30 00:47:37;;;;;;;13.40;8.05;;;;;;;20.54;nan;100145.28;5015466;28;20026;-72
2023/07/30 00:50:03;;;;;;;11.40;8.55;;;;;;;20.46;nan;100134.47;5013095;28;20025;-72
2023/07/30 00:52:30;;;;;;;14.38;7.80;;;;;;;20.46;nan;100131.78;5013923;28;20044;-70
2023/07/30 00:54:57;;;;;;;13.10;8.18;;;;;;;20.39;nan;100132.97;5018280;28;20470;-71
2023/07/30 00:57:23;;;;;;;13.40;7.55;;;;;;;20.35;nan;100128.50;5014230;28;20029;-72
2023/07/30 00:59:49;;;;;;;14.13;8.57;;;;;;;20.34;nan;100126.94;5014640;28;20599;-71
2023/07/30 01:02:15;;;;;;;12.77;7.90;;;;;;;20.36;nan;100133.56;5021790;28;20749;-72
2023/07/30 01:04:40;;;;;;;12.27;7.90;;;;;;;20.32;nan;100132.56;5014230;28;20036;-71
2023/07/30 01:07:06;;;;;;;11.10;7.93;;;;;;;20.30;nan;100139.31;5015010;28;20028;-72
2023/07/30 01:09:33;;;;;;;11.32;7.65;;;;;;;20.21;nan;100138.41;5016276;28;20204;-72
2023/07/30 01:12:00;;;;;;;12.23;8.43;;;;;;;20.23;nan;100149.59;5015298;28;20057;-72
2023/07/30 01:14:26;;;;;;;11.50;8.45;;;;;;;20.10;nan;100129.78;5013785;28;20021;-71
2023/07/30 01:16:52;;;;;;;11.70;8.35;;;;;;;20.08;nan;100129.28;5030616;28;20056;-70
2023/07/30 01:19:18;;;;;;;12.48;8.43;;;;;;;20.11;nan;100136.69;5013418;28;20036;-70
2023/07/30 01:21:43;;;;;;;10.45;8.35;;;;;;;20.01;nan;100120.84;5015936;28;20045;-72
2023/07/30 01:24:09;;;;;;;9.73;8.45;;;;;;;20.07;nan;100139.19;5013984;28;20025;-71
2023/07/30 01:26:47;;;;;;;14.57;8.75;;;;;;;20.03;nan;100148.09;5015468;28;20768;-71
2023/07/30 01:29:22;;;;;;;14.57;8.30;;;;;;;19.92;nan;100120.72;5021247;28;20025;-71
2023/07/30 01:31:54;;;;;;;9.70;8.05;;;;;;;19.92;nan;100129.56;5016430;28;20514;-71
2023/07/30 01:34:21;;;;;;;14.07;8.00;;;;;;;19.99;nan;100142.53;5015103;28;20079;-69
2023/07/30 01:36:47;;;;;;;11.02;8.00;;;;;;;19.74;nan;100099.13;5016331;28;20047;-70
2023/07/30 01:39:14;;;;;;;12.95;8.40;;;;;;;19.91;nan;100121.81;5017895;28;20030;-71
2023/07/30 01:41:40;;;;;;;11.60;8.75;;;;;;;19.76;nan;100120.22;5015876;28;20054;-71
2023/07/30 01:44:05;;;;;;;13.32;9.32;;;;;;;19.75;nan;100124.78;5015463;28;20396;-70
2023/07/30 01:46:31;;;;;;;10.80;9.20;;;;;;;19.75;nan;100115.94;5016869;28;20044;-71
2023/07/30 01:48:56;;;;;;;12.00;8.32;;;;;;;19.79;nan;100121.50;5012516;28;20033;-69
2023/07/30 01:51:21;;;;;;;12.43;8.73;;;;;;;19.72;nan;100121.88;5014223;28;20037;-72
2023/07/30 01:53:47;;;;;;;13.05;9.68;;;;;;;19.67;nan;100133.41;5015485;28;20034;-70
2023/07/30 01:56:12;;;;;;;13.85;9.63;;;;;;;19.57;nan;100135.47;5016213;28;20089;-71
2023/07/30 01:58:37;;;;;;;16.20;9.93;;;;;;;19.49;nan;100134.22;5018018;28;20038;-71
2023/07/30 02:01:03;;;;;;;14.15;9.45;;;;;;;19.37;nan;100133.88;5018686;28;20087;-71
2023/07/30 02:03:28;;;;;;;13.20;9.50;;;;;;;19.21;nan;100122.66;5021168;28;20025;-70
2023/07/30 02:05:53;;;;;;;16.25;10.10;;;;;;;19.15;nan;100127.25;5020965;28;20025;-72
2023/07/30 02:08:19;;;;;;;17.40;10.30;;;;;;;19.18;nan;100131.22;5015350;28;20502;-71
2023/07/30 02:10:44;;;;;;;12.52;10.07;;;;;;;19.21;nan;100139.44;5017462;28;20451;-71
2023/07/30 02:13:10;;;;;;;14.18;10.27;;;;;;;19.16;nan;100128.84;5018145;28;20034;-72
2023/07/30 02:15:40;;;;;;;12.70;10.05;;;;;;;19.24;nan;100130.84;5017515;28;20039;-71
2023/07/30 02:18:05;;;;;;;14.77;10.18;;;;;;;19.24;nan;100136.19;5016688;28;20030;-71
2023/07/30 02:20:30;;;;;;;14.85;10.00;;;;;;;19.26;nan;100135.91;5017493;28;20024;-71
2023/07/30 02:22:56;;;;;;;15.30;10.13;;;;;;;19.25;nan;100139.66;5018122;28;20049;-71
2023/07/30 02:25:21;;;;;;;13.85;9.98;;;;;;;19.21;nan;100134.09;5021757;28;20021;-71
2023/07/30 02:27:47;;;;;;;13.23;9.70;;;;;;;19.24;nan;100133.53;5020617;28;20131;-71
2023/07/30 02:30:12;;;;;;;14.73;10.23;;;;;;;19.19;nan;100130.94;5017444;28;20033;-71
2023/07/30 02:32:37;;;;;;;14.05;9.02;;;;;;;19.14;nan;100123.00;5018910;28;20038;-71
2023/07/30 02:35:03;;;;;;;14.73;9.90;;;;;;;18.92;nan;100096.88;5018832;28;20028;-70
2023/07/30 02:37:28;;;;;;;13.70;10.50;;;;;;;19.06;nan;100121.00;5017082;28;20465;-71
2023/07/30 02:39:54;;;;;;;11.57;9.43;;;;;;;19.22;nan;100142.91;5018617;28;20099;-70
2023/07/30 02:42:19;;;;;;;14.65;9.70;;;;;;;19.23;nan;100149.84;5020130;28;20064;-70
2023/07/30 02:44:45;;;;;;;14.18;9.70;;;;;;;19.22;nan;100148.25;5016228;28;20025;-72
2023/07/30 02:47:10;;;;;;;13.10;9.02;;;;;;;19.28;nan;100149.78;5016016;28;20025;-71
2023/07/30 02:49:35;;;;;;;16.42;9.23;;;;;;;19.18;nan;100134.69;5018632;28;20032;-71
2023/07/30 02:52:01;;;;;;;16.60;10.60;;;;;;;19.17;nan;100140.31;5020705;28;20460;-71
2023/07/30 02:54:26;;;;;;;14.35;10.20;;;;;;;19.13;nan;100148.91;5018510;28;20025;-71
2023/07/30 02:56:52;;;;;;;15.80;10.20;;;;;;;19.08;nan;100138.31;5015943;28;20494;-70
2023/07/30 02:59:17;;;;;;;15.23;10.50;;;;;;;19.03;nan;100146.34;5023257;28;20585;-71
2023/07/30 03:01:43;;;;;;;16.05;10.20;;;;;;;19.07;nan;100136.69;5017041;28;20040;-72
2023/07/30 03:04:08;;;;;;;14.27;10.30;;;;;;;18.89;nan;100132.94;5015511;28;20021;-71
2023/07/30 03:06:34;;;;;;;13.60;10.00;;;;;;;18.78;nan;100134.16;5016457;28;20403;-71
2023/07/30 03:08:59;;;;;;;15.50;10.23;;;;;;;18.75;nan;100126.69;5015230;28;20026;-71
2023/07/30 03:11:25;;;;;;;13.73;10.40;;;;;;;18.73;nan;100122.72;5022283;28;20040;-70
2023/07/30 03:13:50;;;;;;;13.85;10.40;;;;;;;18.55;nan;100100.25;5014464;28;20274;-72
2023/07/30 03:16:15;;;;;;;12.15;10.07;;;;;;;18.75;nan;100132.03;5015668;28;20042;-71
2023/07/30 03:18:41;;;;;;;14.95;10.68;;;;;;;18.78;nan;100136.81;5016293;28;20030;-71
2023/07/30 03:21:06;;;;;;;16.20;10.30;;;;;;;18.74;nan;100129.63;5016405;28;20052;-71
2023/07/30 03:23:31;;;;;;;13.82;9.60;;;;;;;18.78;nan;100144.81;5014907;28;20060;-70
2023/07/30 03:25:58;;;;;;;14.73;10.35;;;;;;;18.70;nan;100146.22;5016152;28;20025;-71
2023/07/30 03:28:23;;;;;;;12.65;10.52;;;;;;;18.31;nan;100098.38;5009170;28;20032;-71
2023/07/30 03:30:48;;;;;;;15.13;10.43;;;;;;;18.50;nan;100133.88;5016975;28;20029;-70
2023/07/30 03:33:14;;;;;;;15.57;11.73;;;;;;;18.38;nan;100136.16;5017179;28;20032;-71
2023/07/30 03:35:39;;;;;;;13.40;10.68;;;;;;;18.37;nan;100137.25;5015576;28;20490;-70
2023/07/30 03:38:04;;;;;;;12.63;10.32;;;;;;;18.38;nan;100138.03;5047640;28;20483;-71
2023/07/30 03:40:30;;;;;;;16.05;11.20;;;;;;;18.36;nan;100148.97;5017283;28;20091;-71
2023/07/30 03:42:55;;;;;;;18.50;11.35;;;;;;;18.37;nan;100139.91;5015913;28;20116;-71
2023/07/30 03:45:21;;;;;;;11.93;10.38;;;;;;;18.18;nan;100109.75;5015823;28;20100;-71
2023/07/30 03:47:46;;;;;;;15.00;10.73;;;;;;;18.38;nan;100149.50;5020700;28;20037;-71
2023/07/30 03:50:11;;;;;;;17.90;11.30;;;;;;;18.37;nan;100152.47;5017602;28;20021;-70
2023/07/30 03:52:37;;;;;;;15.57;11.38;;;;;;;18.35;nan;100160.72;5017038;28;20034;-70
2023/07/30 03:55:03;;;;;;;18.02;10.98;;;;;;;18.25;nan;100145.63;5017175;28;20639;-70
2023/07/30 03:57:28;;;;;;;28.05;23.17;;;;;;;18.32;nan;100144.53;5015887;28;20041;-71
2023/07/30 03:59:53;;;;;;;17.65;11.98;;;;;;;18.39;nan;100145.78;5023383;28;20038;-71
2023/07/30 04:02:19;;;;;;;14.88;11.80;;;;;;;18.32;nan;100141.84;5016235;28;20635;-70
2023/07/30 04:04:46;;;;;;;14.85;11.40;;;;;;;18.38;nan;100136.16;5018084;28;20053;-70
2023/07/30 04:07:11;;;;;;;17.67;11.40;;;;;;;18.51;nan;100148.03;5015532;28;20030;-70
2023/07/30 04:09:36;;;;;;;15.30;11.35;;;;;;;18.34;nan;100105.03;5018990;28;20032;-70
2023/07/30 04:12:02;;;;;;;13.73;11.07;;;;;;;18.56;nan;100139.19;5013993;28;20033;-70
2023/07/30 04:14:27;;;;;;;15.00;11.02;;;;;;;18.51;nan;100140.03;5018557;28;20029;-70
2023/07/30 04:16:53;;;;;;;17.10;10.68;;;;;;;18.56;nan;100145.31;5016135;28;20407;-71
2023/07/30 04:19:19;;;;;;;14.75;10.57;;;;;;;18.57;nan;100151.44;5020420;28;20033;-70
2023/07/30 04:21:44;;;;;;;14.80;11.15;;;;;;;18.56;nan;100141.88;5015642;28;20037;-69
2023/07/30 04:24:10;;;;;;;13.32;10.70;;;;;;;18.67;nan;100146.75;5017749;28;20030;-70
2023/07/30 04:26:35;;;;;;;13.45;10.93;;;;;;;18.68;nan;100156.38;5016904;28;20076;-69
2023/07/30 04:29:00;;;;;;;14.30;10.95;;;;;;;18.68;nan;100142.25;5013838;28;20025;-70
2023/07/30 04:31:26;;;;;;;17.73;11.30;;;;;;;18.77;nan;100140.56;5019618;28;20029;-71
2023/07/30 04:33:51;;;;;;;12.35;10.35;;;;;;;18.88;nan;100158.03;5016253;28;20037;-73
2023/07/30 04:36:16;;;;;;;14.57;11.05;;;;;;;18.97;nan;100162.75;5015923;28;20074;-72
2023/07/30 04:38:42;;;;;;;16.20;11.07;;;;;;;18.83;nan;100122.63;5018847;28;20072;-71
2023/07/30 04:41:07;;;;;;;14.70;11.30;;;;;;;19.04;nan;100142.63;5015943;28;20037;-71
2023/07/30 04:43:33;;;;;;;13.68;11.45;;;;;;;19.19;nan;100152.28;5014396;28;20037;-71
2023/07/30 04:45:58;;;;;;;13.65;10.63;;;;;;;19.20;nan;100145.88;5016748;28;20022;-71
2023/07/30 04:48:24;;;;;;;14.57;10.93;;;;;;;19.36;nan;100153.66;5015896;28;20025;-74
2023/07/30 04:50:49;;;;;;;13.85;11.45;;;;;;;19.31;nan;100133.16;5019705;28;20434;-74
2023/07/30 04:53:16;;;;;;;16.00;10.57;;;;;;;19.50;nan;100159.84;5018498;28;20021;-75
2023/07/30 04:55:41;;;;;;;13.07;10.70;;;;;;;19.63;nan;100158.31;5019402;28;20034;-74
2023/07/30 04:58:06;;;;;;;18.23;11.65;;;;;;;19.59;nan;100141.31;5018262;28;20025;-74
2023/07/30 05:00:32;;;;;;;13.52;10.48;;;;;;;19.85;nan;100157.72;5017313;28;20499;-73
2023/07/30 05:02:57;;;;;;;14.18;9.75;;;;;;;19.95;nan;100158.38;5018562;28;20120;-73
2023/07/30 05:05:22;;;;;;;12.55;9.98;;;;;;;20.06;nan;100169.66;5019325;28;20033;-74
2023/07/30 05:07:48;;;;;;;14.05;9.43;;;;;;;20.04;nan;100160.34;5017275;28;20021;-73
2023/07/30 05:10:13;;;;;;;14.60;9.80;;;;;;;20.06;nan;100153.63;5017326;28;20517;-71
2023/07/30 05:12:39;;;;;;;10.95;9.32;;;;;;;20.20;nan;100169.69;5015982;28;20539;-70
2023/07/30 05:15:04;;;;;;;11.60;8.85;;;;;;;20.20;nan;100159.00;5013222;28;20063;-70
2023/07/30 05:17:30;;;;;;;12.52;9.27;;;;;;;20.23;nan;100154.94;5015892;28;20030;-73
2023/07/30 05:19:55;;;;;;;10.88;8.93;;;;;;;20.16;nan;100131.25;5015893;28;20112;-76
2023/07/30 05:22:21;;;;;;;17.85;9.45;;;;;;;20.44;nan;100163.38;5017080;28;20050;-74
2023/07/30 05:24:46;;;;;;;12.88;9.55;;;;;;;20.24;nan;100116.44;5014981;28;20072;-70
2023/07/30 05:27:12;;;;;;;11.38;9.73;;;;;;;20.54;nan;100152.47;5028731;28;20468;-73
2023/07/30 05:29:37;;;;;;;11.93;9.10;;;;;;;20.61;nan;100160.94;5013850;28;20056;-71
2023/07/30 05:32:03;;;;;;;13.65;8.77;;;;;;;20.71;nan;100176.81;5012735;28;20722;-71
2023/07/30 05:34:29;;;;;;;13.65;9.20;;;;;;;20.82;nan;100175.50;5015293;28;20511;-72
2023/07/30 05:36:54;;;;;;;14.70;9.65;;;;;;;20.92;nan;100173.72;5016062;28;20063;-71
2023/07/30 05:39:19;;;;;;;12.65;9.25;;;;;;;21.02;nan;100176.97;5017382;28;20037;-71
2023/07/30 05:41:45;;;;;;;11.60;9.48;;;;;;;21.04;nan;100161.38;5017549;28;20029;-71
2023/07/30 05:44:10;;;;;;;11.35;8.70;;;;;;;21.12;nan;100162.56;5022257;28;20041;-70
2023/07/30 05:46:36;;;;;;;13.52;9.43;;;;;;;21.21;nan;100170.66;5017841;28;20112;-69
2023/07/30 05:49:01;;;;;;;11.10;9.52;;;;;;;21.31;nan;100165.13;5023091;28;20093;-70
2023/07/30 05:51:26;;;;;;;10.95;9.20;;;;;;;21.34;nan;100147.66;5017146;28;20684;-70
2023/07/30 05:53:52;;;;;;;10.82;9.52;;;;;;;21.47;nan;100157.53;5022873;28;20948;-73
2023/07/30 05:56:18;;;;;;;14.52;9.18;;;;;;;21.53;nan;100155.53;5019034;28;20120;-70
2023/07/30 05:58:44;;;;;;;11.45;9.02;;;;;;;21.67;nan;100158.97;5018299;28;20049;-71
2023/07/30 06:01:11;;;;;;;12.77;8.90;;;;;;;21.75;nan;100160.09;5020701;28;20059;-70
2023/07/30 06:03:36;;;;;;;13.13;9.68;;;;;;;21.70;nan;100123.50;5019393;28;20032;-70
2023/07/30 06:06:02;;;;;;;10.40;8.63;;;;;;;21.91;nan;100142.56;5017900;28;20026;-71
2023/07/30 06:08:29;;;;;;;11.88;9.02;;;;;;;21.95;nan;100142.72;5019125;28;20033;-70
2023/07/30 06:10:54;;;;;;;10.32;9.10;;;;;;;22.09;nan;100140.75;5017112;28;20029;-70
2023/07/30 06:13:20;;;;;;;14.20;9.05;;;;;;;22.09;nan;100135.38;5018621;28;20547;-69
2023/07/30 06:15:45;;;;;;;14.20;9.13;;;;;;;22.19;nan;100137.78;5019439;28;20031;-71
2023/07/30 06:18:11;;;;;;;12.20;8.65;;;;;;;22.25;nan;100139.25;5020583;28;20676;-69
2023/07/30 06:20:36;;;;;;;9.50;8.27;;;;;;;22.44;nan;100146.28;5016885;28;20057;-71
2023/07/30 06:23:01;;;;;;;11.30;8.60;;;;;;;22.49;nan;100140.78;5020658;28;20055;-70
2023/07/30 06:25:27;;;;;;;12.48;8.25;;;;;;;22.46;nan;100134.13;5019719;28;20114;-71
2023/07/30 06:27:52;;;;;;;10.23;8.45;;;;;;;22.43;nan;100117.84;5018291;28;20044;-71
2023/07/30 06:30:17;;;;;;;13.77;8.88;;;;;;;22.65;nan;100136.56;5017845;28;20030;-71
2023/07/30 06:32:43;;;;;;;9.25;8.02;;;;;;;22.69;nan;100136.72;5017965;28;20022;-71
2023/07/30 06:35:08;;;;;;;10.80;8.32;;;;;;;22.66;nan;100119.34;5015107;28;20022;-72
2023/07/30 06:37:34;;;;;;;10.85;8.65;;;;;;;22.72;nan;100130.72;5015337;28;20083;-68
2023/07/30 06:39:59;;;;;;;10.80;8.20;;;;;;;22.81;nan;100136.91;5047715;28;20033;-69
2023/07/30 06:42:25;;;;;;;12.38;8.35;;;;;;;22.88;nan;100128.38;5014795;28;20036;-69
2023/07/30 06:44:50;;;;;;;11.20;8.75;;;;;;;23.00;nan;100133.97;5016542;28;20056;-69
2023/07/30 06:47:15;;;;;;;12.68;7.75;;;;;;;23.00;nan;100127.81;5017855;28;20030;-70
2023/07/30 06:49:41;;;;;;;11.63;8.07;;;;;;;23.12;nan;100134.13;5017476;28;20493;-69
2023/07/30 06:52:06;;;;;;;9.25;8.23;;;;;;;23.11;nan;100099.53;5016856;28;20112;-71
2023/07/30 06:54:32;;;;;;;12.73;8.27;;;;;;;23.48;nan;100129.53;5017000;28;20662;-70
2023/07/30 06:56:57;;;;;;;10.18;8.13;;;;;;;23.58;nan;100134.56;5019418;28;20040;-70
2023/07/30 06:59:22;;;;;;;10.93;8.57;;;;;;;23.68;nan;100133.44;5015878;28;20037;-70
2023/07/30 07:01:48;;;;;;;12.32;7.95;;;;;;;23.65;nan;100126.81;5017612;28;20776;-70
2023/07/30 07:04:13;;;;;;;11.32;8.23;;;;;;;23.85;nan;100128.09;5017546;28;20026;-70
2023/07/30 07:06:39;;;;;;;9.88;7.97;;;;;;;23.92;nan;100124.88;5020419;28;20490;-70
2023/07/30 07:09:04;;;;;;;10.43;7.85;;;;;;;23.90;nan;100109.09;5016073;28;20442;-70
2023/07/30 07:11:30;;;;;;;11.95;7.75;;;;;;;24.03;nan;100115.34;5019759;28;20037;-70
2023/07/30 07:13:55;;;;;;;12.70;7.55;;;;;;;24.16;nan;100116.28;5017833;28;20021;-70
2023/07/30 07:16:21;;;;;;;11.57;7.25;;;;;;;24.26;nan;100125.88;5017334;28;20041;-70
2023/07/30 07:18:48;;;;;;;9.13;6.93;;;;;;;24.29;nan;100127.91;5018097;28;20025;-70
2023/07/30 07:21:14;;;;;;;9.48;7.63;;;;;;;24.38;nan;100116.00;5016148;28;20045;-70
2023/07/30 07:23:39;;;;;;;10.68;7.28;;;;;;;24.46;nan;100118.97;5015533;28;20033;-69
2023/07/30 07:26:05;;;;;;;8.80;7.05;;;;;;;24.60;nan;100133.78;5016514;28;20026;-70
2023/07/30 07:28:31;;;;;;;7.78;6.90;;;;;;;24.54;nan;100113.59;5015368;28;20029;-70
2023/07/30 07:30:56;;;;;;;7.85;6.60;;;;;;;24.54;nan;100110.88;5018614;28;20025;-69
2023/07/30 07:33:22;;;;;;;11.23;7.28;;;;;;;24.77;nan;100124.81;5017734;28;20037;-70
2023/07/30 07:35:48;;;;;;;9.77;6.70;;;;;;;24.81;nan;100128.44;5017517;28;20057;-69
2023/07/30 07:38:14;;;;;;;9.00;6.57;;;;;;;24.88;nan;100132.50;5016935;28;20693;-70
2023/07/30 07:40:39;;;;;;;8.45;6.80;;;;;;;24.86;nan;100124.00;5016745;28;20025;-70
2023/07/30 07:43:06;;;;;;;7.40;6.03;;;;;;;25.16;nan;100135.47;5015332;28;20030;-69
2023/07/30 07:45:31;;;;;;;7.18;5.68;;;;;;;25.23;nan;100135.78;5015940;28;20156;-69
2023/07/30 07:47:57;;;;;;;10.18;6.25;;;;;;;25.20;nan;100114.88;5016167;28;20546;-68
2023/07/30 07:50:22;;;;;;;7.57;6.15;;;;;;;25.29;nan;100109.44;5017428;28;20104;-69
2023/07/30 07:52:47;;;;;;;6.78;5.70;;;;;;;25.50;nan;100118.25;5014461;28;20116;-70
2023/07/30 07:55:13;;;;;;;8.73;6.03;;;;;;;25.57;nan;100112.31;5016827;28;20021;-67
2023/07/30 07:57:38;;;;;;;6.82;5.90;;;;;;;25.60;nan;100112.44;5015032;28;20040;-69
2023/07/30 08:00:05;;;;;;;9.05;5.60;;;;;;;25.75;nan;100110.22;5017725;28;20391;-69
2023/07/30 08:02:30;;;;;;;11.63;5.70;;;;;;;25.80;nan;100115.41;5015957;28;20028;-71
2023/07/30 08:04:56;;;;;;;8.38;5.30;;;;;;;25.88;nan;100122.63;5014451;28;20041;-70
2023/07/30 08:07:21;;;;;;;7.43;5.20;;;;;;;25.83;nan;100110.13;5013076;28;20022;-68
2023/07/30 08:09:48;;;;;;;8.07;5.53;;;;;;;25.93;nan;100116.25;5015611;28;20439;-69
2023/07/30 08:12:14;;;;;;;8.07;5.55;;;;;;;26.02;nan;100115.00;5015933;28;20057;-69
2023/07/30 08:14:39;;;;;;;8.65;5.82;;;;;;;25.98;nan;100089.84;5013324;28;20680;-70
2023/07/30 08:17:05;;;;;;;8.70;5.50;;;;;;;26.17;nan;100110.06;5016195;28;20477;-69
2023/07/30 08:19:30;;;;;;;6.95;5.03;;;;;;;26.24;nan;100102.19;5017194;28;20034;-69
2023/07/30 08:21:56;;;;;;;8.23;5.20;;;;;;;26.32;nan;100106.72;5016210;28;20045;-70
2023/07/30 08:24:22;;;;;;;8.40;5.40;;;;;;;26.30;nan;100088.16;5015448;28;20045;-70
2023/07/30 08:26:48;;;;;;;12.68;4.75;;;;;;;26.40;nan;100088.81;5015591;28;20033;-68
2023/07/30 08:29:14;;;;;;;5.45;4.50;;;;;;;26.48;nan;100088.72;5017589;28;20587;-68
2023/07/30 08:31:41;;;;;;;11.55;5.55;;;;;;;26.60;nan;100090.63;5016428;28;20025;-75
2023/07/30 08:34:06;;;;;;;6.78;4.63;;;;;;;26.67;nan;100081.94;5015122;28;20083;-72
2023/07/30 08:36:32;;;;;;;6.65;4.45;;;;;;;26.85;nan;100083.25;5011383;28;20112;-73
2023/07/30 08:38:57;;;;;;;5.93;4.20;;;;;;;27.14;nan;100075.94;5016442;28;20025;-72
2023/07/30 08:41:23;;;;;;;5.40;3.55;;;;;;;27.36;nan;100085.44;5016171;28;20785;-73
2023/07/30 08:43:48;;;;;;;10.80;5.85;;;;;;;27.45;nan;100079.88;5014579;28;20029;-69
2023/07/30 08:46:15;;;;;;;6.38;4.07;;;;;;;27.54;nan;100075.09;5015642;28;20091;-71
2023/07/30 08:48:41;;;;;;;7.50;3.90;;;;;;;27.60;nan;100073.69;5016009;28;20104;-71
2023/07/30 08:51:06;;;;;;;7.22;3.47;;;;;;;27.69;nan;100079.72;5016385;28;20506;-68
2023/07/30 08:53:32;;;;;;;4.30;2.78;;;;;;;27.73;nan;100074.41;5015195;28;20519;-70
2023/07/30 08:55:58;;;;;;;4.60;2.97;;;;;;;27.80;nan;100066.47;5014222;28;20044;-71
2023/07/30 08:58:27;;;;;;;5.22;3.13;;;;;;;27.91;nan;100066.75;5015216;28;20037;-73
2023/07/30 09:00:55;;;;;;;;;;;;;;;27.96;nan;100067.25;5016445;28;20148;-75
2023/07/30 09:03:22;;;;;;;4.13;2.92;;;;;;;27.99;nan;100058.47;5017174;28;20363;-74
2023/07/30 09:05:48;;;;;;;5.28;3.13;;;;;;;28.12;nan;100059.13;5016555;28;20037;-75
2023/07/30 09:08:15;;;;;;;7.88;3.20;;;;;;;28.21;nan;100053.53;5015450;28;20108;-75
2023/07/30 09:10:40;;;;;;;5.47;3.28;;;;;;;28.21;nan;100045.41;5013410;28;20057;-73
2023/07/30 09:13:06;;;;;;;6.00;3.30;;;;;;;28.43;nan;100057.50;5015668;28;20029;-75
2023/07/30 09:15:33;;;;;;;4.10;3.13;;;;;;;28.41;nan;100035.41;5012558;28;20033;-72
2023/07/30 09:18:00;;;;;;;7.18;3.25;;;;;;;28.54;nan;100055.03;5015630;28;20618;-71
2023/07/30 09:20:26;;;;;;;5.35;3.00;;;;;;;28.58;nan;100051.28;5015376;28;20037;-70
2023/07/30 09:22:51;;;;;;;6.78;3.28;;;;;;;28.67;nan;100053.78;5011638;28;20042;-75
2023/07/30 09:25:20;;;;;;;6.72;3.35;;;;;;;28.76;nan;100051.66;5006144;28;20034;-75
2023/07/30 09:27:56;;;;;;;6.05;3.28;;;;;;;28.69;nan;100032.53;5005690;28;20034;-74
2023/07/30 09:30:27;;;;;;;4.10;3.50;;;;;;;28.73;nan;100041.53;5013395;28;20029;-74
2023/07/30 09:32:54;;;;;;;4.15;3.20;;;;;;;28.75;nan;100028.38;5014667;28;20112;-74
2023/07/30 09:35:20;;;;;;;5.35;2.97;;;;;;;28.72;nan;100026.41;5019109;28;20553;-73
2023/07/30 09:37:45;;;;;;;6.13;3.17;;;;;;;28.76;nan;100029.97;5007552;28;20041;-74
2023/07/30 09:40:13;;;;;;;5.15;3.50;;;;;;;28.81;nan;100012.66;5013148;28;20022;-75
2023/07/30 09:42:42;;;;;;;4.20;3.00;;;;;;;28.94;nan;100018.69;5010606;28;20056;-73
2023/07/30 09:45:23;;;;;;;5.10;3.33;;;;;;;29.09;nan;100034.09;5013807;28;20057;-74
2023/07/30 09:47:50;;;;;;;5.35;2.92;;;;;;;28.95;nan;99999.38;5012530;28;20061;-74
2023/07/30 09:50:16;;;;;;;5.15;3.60;;;;;;;29.19;nan;100024.63;5012878;28;20137;-73
2023/07/30 09:52:42;;;;;;;6.05;3.22;;;;;;;29.26;nan;100027.47;5016511;28;20557;-74
2023/07/30 09:55:08;;;;;;;6.20;3.05;;;;;;;29.26;nan;100011.19;5013563;28;20036;-73
2023/07/30 09:57:34;;;;;;;4.78;3.10;;;;;;;29.26;nan;100009.25;5013467;28;20018;-75
2023/07/30 09:59:59;;;;;;;7.13;3.45;;;;;;;29.35;nan;100014.41;5016224;28;20116;-75
2023/07/30 10:02:28;;;;;;;5.32;3.40;;;;;;;29.39;nan;100000.94;5014795;28;20026;-73
2023/07/30 10:04:56;;;;;;;;;;;;;;;29.57;nan;100007.44;5015246;28;20033;-74
2023/07/30 10:07:24;;;;;;;4.10;3.15;;;;;;;29.66;nan;100010.69;5015179;28;19917;-74
2023/07/30 10:09:53;;;;;;;4.07;2.78;;;;;;;29.70;nan;100004.56;5016235;28;20554;-74
2023/07/30 10:12:23;;;;;;;8.20;3.10;;;;;;;29.77;nan;100000.03;5012871;28;20372;-73
2023/07/30 10:14:49;;;;;;;4.60;3.10;;;;;;;29.84;nan;99992.00;5013788;28;20038;-75
2023/07/30 10:17:17;;;;;;;7.38;3.20;;;;;;;29.95;nan;100000.28;5014755;28;20030;-73
2023/07/30 10:19:47;;;;;;;5.10;2.90;;;;;;;29.99;nan;100005.78;5011300;28;20396;-73
2023/07/30 10:22:12;;;;;;;6.50;3.10;;;;;;;29.92;nan;100000.25;5021904;28;20069;-74
2023/07/30 10:24:54;;;;;;;5.05;3.10;;;;;;;29.91;nan;99991.31;5018272;28;20079;-73
2023/07/30 10:27:46;;;;;;;7.10;3.05;;;;;;;30.00;nan;99983.69;5018933;28;20035;-73
2023/07/30 10:30:16;;;;;;;6.63;2.67;;;;;;;30.15;nan;99987.38;5019252;28;20497;-72
2023/07/30 10:32:59;;;;;;;4.47;2.72;;;;;;;30.24;nan;99985.19;5018691;28;20084;-73
2023/07/30 10:35:46;;;;;;;7.47;3.10;;;;;;;30.29;nan;99979.44;5019132;28;20037;-74
2023/07/30 10:38:30;;;;;;;4.90;2.80;;;;;;;30.28;nan;99967.00;5017613;28;20061;-74
2023/07/30 10:41:10;;;;;;;7.78;2.80;;;;;;;30.34;nan;99972.09;5017394;28;20034;-73
2023/07/30 10:43:39;;;;;;;3.85;2.72;;;;;;;30.33;nan;99970.56;5013678;28;20552;-75
2023/07/30 10:46:05;;;;;;;5.53;3.03;;;;;;;30.22;nan;99963.03;5047019;28;20454;-73
2023/07/30 10:48:33;;;;;;;4.30;2.60;;;;;;;30.33;nan;99970.56;5019478;28;20048;-73
2023/07/30 10:51:00;;;;;;;8.18;3.70;;;;;;;30.30;nan;99964.72;5014819;28;20034;-73
2023/07/30 10:53:26;;;;;;;5.18;3.00;;;;;;;30.40;nan;99959.78;5016466;28;21225;-73
2023/07/30 10:55:52;;;;;;;6.25;2.95;;;;;;;30.44;nan;99972.25;5017330;28;20026;-73
2023/07/30 10:58:18;;;;;;;6.82;2.83;;;;;;;30.48;nan;99961.41;5017608;28;20045;-68
2023/07/30 11:00:43;;;;;;;3.78;2.67;;;;;;;30.53;nan;99967.31;5021208;28;20033;-73
2023/07/30 11:03:09;;;;;;;4.65;2.88;;;;;;;30.55;nan;99971.59;5017545;28;20301;-73
2023/07/30 11:05:37;;;;;;;4.30;2.80;;;;;;;30.64;nan;99978.31;5016688;28;20037;-73
2023/07/30 11:08:03;;;;;;;3.30;2.65;;;;;;;30.59;nan;99959.63;5020850;28;20053;-75
2023/07/30 11:10:28;;;;;;;3.40;2.47;;;;;;;30.71;nan;99975.66;5015079;28;20079;-75
2023/07/30 11:12:53;;;;;;;3.40;2.70;;;;;;;30.77;nan;99969.88;5019655;28;20037;-75
2023/07/30 11:15:19;;;;;;;5.05;3.25;;;;;;;30.72;nan;99946.53;5020312;28;20035;-73
2023/07/30 11:17:45;;;;;;;3.85;2.90;;;;;;;30.81;nan;99951.69;5020220;28;20030;-74
2023/07/30 11:20:27;;;;;;;5.03;3.15;;;;;;;30.90;nan;99952.97;5018669;28;20109;-74
2023/07/30 11:22:53;;;;;;;4.70;3.10;;;;;;;30.76;nan;99922.13;5017996;28;20048;-73
2023/07/30 11:25:20;;;;;;;3.85;2.88;;;;;;;31.02;nan;99951.16;5017349;28;20090;-74
2023/07/30 11:27:46;;;;;;;7.22;4.43;;;;;;;31.02;nan;99937.56;5025276;28;20113;-73
2023/07/30 11:30:12;;;;;;;4.50;3.28;;;;;;;31.10;nan;99955.47;5015648;28;20036;-74
2023/07/30 11:32:37;;;;;;;4.78;3.40;;;;;;;31.07;nan;99937.97;5017692;28;20391;-73